KLRJ/LRJ METAR and TAF weather

Enter ICAO airport designator
Station Type Date Time Source
KLRJ METAR 2021/10/24 20:55 UTC NOAA

KLRJ 242055Z AUTO 05011KT 6SM BR OVC014 06/05 A2977 RMK AO2


Station Type Date Time Source
KLRJ Decoded METAR 2021/10/24 20:55 UTC NOAA

Le Mars, Le Mars Municipal Airport, IA, United States (KLRJ) 42-46-41N 096-11-37W
Oct 24, 2021 - 04:55 PM EDT / 2021.10.24 2055 UTC
Wind: from the NE (050 degrees) at 13 MPH (11 KT):0
Visibility: 6 mile(s):0
Sky conditions: overcast
Weather: mist
Temperature: 42 F (6 C)
Dew Point: 41 F (5 C)
Relative Humidity: 93%
Pressure (altimeter): 29.77 in. Hg (1008 hPa)
ob: KLRJ 242055Z AUTO 05011KT 6SM BR OVC014 06/05 A2977 RMK AO2
cycle: 21

Station Type Date Time Source
KLRJ TAF UTC NOAA

Error!

Example: see airport list